sensor_id;sensor_type;location;lat;lon;timestamp;P1;durP1;ratioP1;P2;durP2;ratioP2
76125;SDS011;65174;48.138;21.002;2023-03-12T00:01:44;1.83;;;1.20;;
76125;SDS011;65174;48.138;21.002;2023-03-12T00:04:46;3.67;;;2.25;;
76125;SDS011;65174;48.138;21.002;2023-03-12T00:07:48;1.75;;;1.30;;
76125;SDS011;65174;48.138;21.002;2023-03-12T00:10:51;2.10;;;1.52;;
76125;SDS011;65174;48.138;21.002;2023-03-12T00:13:54;1.98;;;1.50;;
76125;SDS011;65174;48.138;21.002;2023-03-12T00:16:58;2.40;;;1.63;;
76125;SDS011;65174;48.138;21.002;2023-03-12T00:20:00;3.58;;;1.55;;
76125;SDS011;65174;48.138;21.002;2023-03-12T00:23:03;2.60;;;1.55;;
76125;SDS011;65174;48.138;21.002;2023-03-12T00:26:06;1.45;;;1.27;;
76125;SDS011;65174;48.138;21.002;2023-03-12T00:29:10;1.95;;;1.65;;
76125;SDS011;65174;48.138;21.002;2023-03-12T00:32:13;2.17;;;1.27;;
76125;SDS011;65174;48.138;21.002;2023-03-12T00:35:15;2.75;;;1.30;;
76125;SDS011;65174;48.138;21.002;2023-03-12T00:38:18;2.17;;;1.63;;
76125;SDS011;65174;48.138;21.002;2023-03-12T00:41:22;2.25;;;1.50;;
76125;SDS011;65174;48.138;21.002;2023-03-12T00:44:24;2.60;;;1.77;;
76125;SDS011;65174;48.138;21.002;2023-03-12T00:47:26;4.87;;;2.67;;
76125;SDS011;65174;48.138;21.002;2023-03-12T00:50:29;2.78;;;1.77;;
76125;SDS011;65174;48.138;21.002;2023-03-12T00:53:32;2.90;;;1.90;;
76125;SDS011;65174;48.138;21.002;2023-03-12T00:56:34;3.90;;;2.08;;
76125;SDS011;65174;48.138;21.002;2023-03-12T00:59:36;3.38;;;1.88;;
76125;SDS011;65174;48.138;21.002;2023-03-12T01:02:41;4.47;;;2.10;;
76125;SDS011;65174;48.138;21.002;2023-03-12T01:05:44;2.28;;;1.60;;
76125;SDS011;65174;48.138;21.002;2023-03-12T01:08:46;4.68;;;2.08;;
76125;SDS011;65174;48.138;21.002;2023-03-12T01:11:49;3.88;;;1.48;;
76125;SDS011;65174;48.138;21.002;2023-03-12T01:14:51;3.28;;;1.83;;
76125;SDS011;65174;48.138;21.002;2023-03-12T01:17:53;5.23;;;2.23;;
76125;SDS011;65174;48.138;21.002;2023-03-12T01:20:55;3.55;;;1.98;;
76125;SDS011;65174;48.138;21.002;2023-03-12T01:23:57;5.72;;;1.92;;
76125;SDS011;65174;48.138;21.002;2023-03-12T01:27:00;3.45;;;1.80;;
76125;SDS011;65174;48.138;21.002;2023-03-12T01:30:02;3.47;;;1.75;;
76125;SDS011;65174;48.138;21.002;2023-03-12T01:33:06;4.30;;;2.07;;
76125;SDS011;65174;48.138;21.002;2023-03-12T01:36:15;3.33;;;1.90;;
76125;SDS011;65174;48.138;21.002;2023-03-12T01:39:17;3.42;;;1.90;;
76125;SDS011;65174;48.138;21.002;2023-03-12T01:42:20;4.18;;;2.40;;
76125;SDS011;65174;48.138;21.002;2023-03-12T01:49:12;3.37;;;2.50;;
76125;SDS011;65174;48.138;21.002;2023-03-12T01:52:34;4.80;;;2.47;;
76125;SDS011;65174;48.138;21.002;2023-03-12T01:55:38;4.05;;;2.42;;
76125;SDS011;65174;48.138;21.002;2023-03-12T01:58:42;3.75;;;2.30;;
76125;SDS011;65174;48.138;21.002;2023-03-12T02:01:50;4.15;;;2.33;;
76125;SDS011;65174;48.138;21.002;2023-03-12T02:05:55;5.53;;;2.40;;
76125;SDS011;65174;48.138;21.002;2023-03-12T02:08:57;5.35;;;2.05;;
76125;SDS011;65174;48.138;21.002;2023-03-12T02:12:04;3.53;;;1.65;;
76125;SDS011;65174;48.138;21.002;2023-03-12T02:15:07;4.47;;;2.10;;
76125;SDS011;65174;48.138;21.002;2023-03-12T02:18:10;4.45;;;2.28;;
76125;SDS011;65174;48.138;21.002;2023-03-12T02:21:21;5.53;;;1.87;;
76125;SDS011;65174;48.138;21.002;2023-03-12T02:24:29;3.75;;;1.98;;
76125;SDS011;65174;48.138;21.002;2023-03-12T02:27:37;2.55;;;1.52;;
76125;SDS011;65174;48.138;21.002;2023-03-12T02:30:43;3.80;;;2.22;;
76125;SDS011;65174;48.138;21.002;2023-03-12T02:33:48;3.38;;;1.77;;
76125;SDS011;65174;48.138;21.002;2023-03-12T02:36:50;4.47;;;2.03;;
76125;SDS011;65174;48.138;21.002;2023-03-12T02:40:54;4.93;;;2.33;;
76125;SDS011;65174;48.138;21.002;2023-03-12T02:43:35;4.78;;;1.92;;
76125;SDS011;65174;48.138;21.002;2023-03-12T02:46:44;2.70;;;1.92;;
76125;SDS011;65174;48.138;21.002;2023-03-12T02:49:51;5.40;;;2.50;;
76125;SDS011;65174;48.138;21.002;2023-03-12T02:52:53;4.67;;;3.43;;
76125;SDS011;65174;48.138;21.002;2023-03-12T02:55:56;6.30;;;2.97;;
76125;SDS011;65174;48.138;21.002;2023-03-12T02:58:58;3.70;;;1.95;;
76125;SDS011;65174;48.138;21.002;2023-03-12T03:02:04;6.50;;;2.58;;
76125;SDS011;65174;48.138;21.002;2023-03-12T03:05:08;2.92;;;1.95;;
76125;SDS011;65174;48.138;21.002;2023-03-12T03:08:11;3.57;;;2.47;;
76125;SDS011;65174;48.138;21.002;2023-03-12T03:11:14;4.45;;;2.40;;
76125;SDS011;65174;48.138;21.002;2023-03-12T03:14:17;3.90;;;2.22;;
76125;SDS011;65174;48.138;21.002;2023-03-12T03:17:23;7.50;;;2.55;;
76125;SDS011;65174;48.138;21.002;2023-03-12T03:20:26;4.05;;;2.40;;
76125;SDS011;65174;48.138;21.002;2023-03-12T03:23:28;3.90;;;2.07;;
76125;SDS011;65174;48.138;21.002;2023-03-12T03:26:31;5.18;;;2.53;;
76125;SDS011;65174;48.138;21.002;2023-03-12T03:29:33;4.00;;;2.30;;
76125;SDS011;65174;48.138;21.002;2023-03-12T03:32:37;4.50;;;2.63;;
76125;SDS011;65174;48.138;21.002;2023-03-12T03:35:40;4.75;;;2.60;;
76125;SDS011;65174;48.138;21.002;2023-03-12T03:38:42;5.40;;;2.37;;
76125;SDS011;65174;48.138;21.002;2023-03-12T03:41:50;3.60;;;2.47;;
76125;SDS011;65174;48.138;21.002;2023-03-12T03:44:56;4.80;;;2.90;;
76125;SDS011;65174;48.138;21.002;2023-03-12T03:47:58;5.15;;;2.30;;
76125;SDS011;65174;48.138;21.002;2023-03-12T03:51:03;3.53;;;2.58;;
76125;SDS011;65174;48.138;21.002;2023-03-12T03:54:10;9.80;;;2.20;;
76125;SDS011;65174;48.138;21.002;2023-03-12T03:57:13;3.78;;;2.55;;
76125;SDS011;65174;48.138;21.002;2023-03-12T04:00:15;4.05;;;2.28;;
76125;SDS011;65174;48.138;21.002;2023-03-12T04:03:22;6.18;;;2.80;;
76125;SDS011;65174;48.138;21.002;2023-03-12T04:06:24;5.80;;;2.35;;
76125;SDS011;65174;48.138;21.002;2023-03-12T04:09:26;2.67;;;1.90;;
76125;SDS011;65174;48.138;21.002;2023-03-12T04:12:28;4.43;;;2.47;;
76125;SDS011;65174;48.138;21.002;2023-03-12T04:15:31;6.68;;;2.53;;
76125;SDS011;65174;48.138;21.002;2023-03-12T04:18:33;7.38;;;2.80;;
76125;SDS011;65174;48.138;21.002;2023-03-12T04:21:37;4.25;;;2.05;;
76125;SDS011;65174;48.138;21.002;2023-03-12T04:24:41;5.37;;;2.33;;
76125;SDS011;65174;48.138;21.002;2023-03-12T04:27:43;6.03;;;2.38;;
76125;SDS011;65174;48.138;21.002;2023-03-12T04:30:56;7.15;;;2.92;;
76125;SDS011;65174;48.138;21.002;2023-03-12T04:34:05;4.35;;;2.15;;
76125;SDS011;65174;48.138;21.002;2023-03-12T04:37:08;4.18;;;2.20;;
76125;SDS011;65174;48.138;21.002;2023-03-12T04:40:15;5.30;;;2.60;;
76125;SDS011;65174;48.138;21.002;2023-03-12T04:43:20;4.85;;;2.83;;
76125;SDS011;65174;48.138;21.002;2023-03-12T04:46:23;5.05;;;2.47;;
76125;SDS011;65174;48.138;21.002;2023-03-12T04:49:25;5.80;;;2.92;;
76125;SDS011;65174;48.138;21.002;2023-03-12T04:52:29;5.72;;;3.22;;
76125;SDS011;65174;48.138;21.002;2023-03-12T04:55:31;5.37;;;2.73;;
76125;SDS011;65174;48.138;21.002;2023-03-12T04:58:33;10.70;;;3.00;;
76125;SDS011;65174;48.138;21.002;2023-03-12T05:01:36;15.48;;;3.47;;
76125;SDS011;65174;48.138;21.002;2023-03-12T05:04:46;4.57;;;2.72;;
76125;SDS011;65174;48.138;21.002;2023-03-12T05:07:48;4.25;;;3.00;;
76125;SDS011;65174;48.138;21.002;2023-03-12T05:10:51;4.20;;;2.60;;
76125;SDS011;65174;48.138;21.002;2023-03-12T05:13:53;5.20;;;3.05;;
76125;SDS011;65174;48.138;21.002;2023-03-12T05:16:57;4.03;;;2.72;;
76125;SDS011;65174;48.138;21.002;2023-03-12T05:19:59;5.78;;;3.25;;
76125;SDS011;65174;48.138;21.002;2023-03-12T05:23:01;5.97;;;3.40;;
76125;SDS011;65174;48.138;21.002;2023-03-12T05:26:04;5.23;;;2.90;;
76125;SDS011;65174;48.138;21.002;2023-03-12T05:29:08;5.10;;;3.22;;
76125;SDS011;65174;48.138;21.002;2023-03-12T05:32:11;6.70;;;2.97;;
76125;SDS011;65174;48.138;21.002;2023-03-12T05:35:13;3.30;;;2.42;;
76125;SDS011;65174;48.138;21.002;2023-03-12T05:38:17;5.32;;;2.75;;
76125;SDS011;65174;48.138;21.002;2023-03-12T05:41:24;4.43;;;2.47;;
76125;SDS011;65174;48.138;21.002;2023-03-12T05:44:31;7.88;;;3.65;;
76125;SDS011;65174;48.138;21.002;2023-03-12T05:47:36;6.97;;;3.33;;
76125;SDS011;65174;48.138;21.002;2023-03-12T05:50:38;6.32;;;3.70;;
76125;SDS011;65174;48.138;21.002;2023-03-12T05:53:41;4.15;;;2.80;;
76125;SDS011;65174;48.138;21.002;2023-03-12T05:56:45;4.07;;;2.87;;
76125;SDS011;65174;48.138;21.002;2023-03-12T05:59:48;7.88;;;2.83;;
76125;SDS011;65174;48.138;21.002;2023-03-12T06:02:50;4.68;;;2.28;;
76125;SDS011;65174;48.138;21.002;2023-03-12T06:05:53;4.32;;;3.03;;
76125;SDS011;65174;48.138;21.002;2023-03-12T06:08:58;4.78;;;3.47;;
76125;SDS011;65174;48.138;21.002;2023-03-12T06:12:00;7.43;;;2.60;;
76125;SDS011;65174;48.138;21.002;2023-03-12T06:15:03;5.55;;;2.75;;
76125;SDS011;65174;48.138;21.002;2023-03-12T06:18:06;20.52;;;5.40;;
76125;SDS011;65174;48.138;21.002;2023-03-12T06:24:19;10.27;;;4.05;;
76125;SDS011;65174;48.138;21.002;2023-03-12T06:27:24;5.67;;;3.50;;
76125;SDS011;65174;48.138;21.002;2023-03-12T06:30:28;4.72;;;3.15;;
76125;SDS011;65174;48.138;21.002;2023-03-12T06:33:30;8.70;;;5.78;;
76125;SDS011;65174;48.138;21.002;2023-03-12T06:36:32;5.43;;;3.63;;
76125;SDS011;65174;48.138;21.002;2023-03-12T06:39:43;4.85;;;3.28;;
76125;SDS011;65174;48.138;21.002;2023-03-12T06:42:46;4.80;;;2.87;;
76125;SDS011;65174;48.138;21.002;2023-03-12T06:45:48;5.10;;;3.25;;
76125;SDS011;65174;48.138;21.002;2023-03-12T06:48:50;5.97;;;3.20;;
76125;SDS011;65174;48.138;21.002;2023-03-12T06:51:52;5.35;;;3.00;;
76125;SDS011;65174;48.138;21.002;2023-03-12T06:54:55;5.95;;;3.28;;
76125;SDS011;65174;48.138;21.002;2023-03-12T06:57:57;5.73;;;3.20;;
76125;SDS011;65174;48.138;21.002;2023-03-12T07:00:59;8.23;;;5.00;;
76125;SDS011;65174;48.138;21.002;2023-03-12T07:04:01;9.13;;;4.47;;
76125;SDS011;65174;48.138;21.002;2023-03-12T07:07:03;13.10;;;6.53;;
76125;SDS011;65174;48.138;21.002;2023-03-12T07:10:06;16.98;;;7.72;;
76125;SDS011;65174;48.138;21.002;2023-03-12T07:13:08;16.67;;;7.80;;
76125;SDS011;65174;48.138;21.002;2023-03-12T07:16:11;11.68;;;6.00;;
76125;SDS011;65174;48.138;21.002;2023-03-12T07:19:13;5.70;;;3.50;;
76125;SDS011;65174;48.138;21.002;2023-03-12T07:22:17;5.25;;;3.33;;
76125;SDS011;65174;48.138;21.002;2023-03-12T07:25:19;5.18;;;3.40;;
76125;SDS011;65174;48.138;21.002;2023-03-12T07:28:22;5.03;;;3.07;;
76125;SDS011;65174;48.138;21.002;2023-03-12T07:31:24;4.78;;;3.40;;
76125;SDS011;65174;48.138;21.002;2023-03-12T07:34:27;6.15;;;3.03;;
76125;SDS011;65174;48.138;21.002;2023-03-12T07:37:29;5.50;;;2.97;;
76125;SDS011;65174;48.138;21.002;2023-03-12T07:40:31;6.78;;;3.72;;
76125;SDS011;65174;48.138;21.002;2023-03-12T07:43:34;4.57;;;2.77;;
76125;SDS011;65174;48.138;21.002;2023-03-12T07:46:36;6.95;;;3.65;;
76125;SDS011;65174;48.138;21.002;2023-03-12T07:49:38;4.22;;;2.58;;
76125;SDS011;65174;48.138;21.002;2023-03-12T07:52:42;4.57;;;2.72;;
76125;SDS011;65174;48.138;21.002;2023-03-12T07:55:45;4.95;;;2.63;;
76125;SDS011;65174;48.138;21.002;2023-03-12T07:58:48;5.40;;;2.70;;
76125;SDS011;65174;48.138;21.002;2023-03-12T08:01:52;5.72;;;3.00;;
76125;SDS011;65174;48.138;21.002;2023-03-12T08:04:54;4.50;;;3.00;;
76125;SDS011;65174;48.138;21.002;2023-03-12T08:07:57;6.75;;;3.35;;
76125;SDS011;65174;48.138;21.002;2023-03-12T08:11:00;7.65;;;2.70;;
76125;SDS011;65174;48.138;21.002;2023-03-12T08:14:04;6.43;;;3.10;;
76125;SDS011;65174;48.138;21.002;2023-03-12T08:17:06;5.05;;;2.65;;
76125;SDS011;65174;48.138;21.002;2023-03-12T08:20:09;3.75;;;2.63;;
76125;SDS011;65174;48.138;21.002;2023-03-12T08:23:12;4.85;;;3.17;;
76125;SDS011;65174;48.138;21.002;2023-03-12T08:26:14;23.88;;;18.58;;
76125;SDS011;65174;48.138;21.002;2023-03-12T08:29:16;6.10;;;3.17;;
76125;SDS011;65174;48.138;21.002;2023-03-12T08:32:18;29.63;;;15.15;;
76125;SDS011;65174;48.138;21.002;2023-03-12T08:35:20;5.10;;;3.50;;
76125;SDS011;65174;48.138;21.002;2023-03-12T08:38:23;5.47;;;2.88;;
76125;SDS011;65174;48.138;21.002;2023-03-12T08:41:25;4.85;;;2.92;;
76125;SDS011;65174;48.138;21.002;2023-03-12T08:44:27;5.47;;;3.00;;
76125;SDS011;65174;48.138;21.002;2023-03-12T08:47:29;4.55;;;2.78;;
76125;SDS011;65174;48.138;21.002;2023-03-12T08:54:04;4.45;;;2.70;;
76125;SDS011;65174;48.138;21.002;2023-03-12T08:57:07;6.20;;;3.40;;
76125;SDS011;65174;48.138;21.002;2023-03-12T09:00:09;4.43;;;3.00;;
76125;SDS011;65174;48.138;21.002;2023-03-12T09:03:16;4.53;;;3.00;;
76125;SDS011;65174;48.138;21.002;2023-03-12T09:06:18;4.22;;;2.75;;
76125;SDS011;65174;48.138;21.002;2023-03-12T09:09:21;5.05;;;2.83;;
76125;SDS011;65174;48.138;21.002;2023-03-12T09:12:23;5.10;;;3.00;;
76125;SDS011;65174;48.138;21.002;2023-03-12T09:15:25;3.93;;;2.43;;
76125;SDS011;65174;48.138;21.002;2023-03-12T09:18:28;5.40;;;2.40;;
76125;SDS011;65174;48.138;21.002;2023-03-12T09:21:31;12.25;;;3.00;;
76125;SDS011;65174;48.138;21.002;2023-03-12T09:24:34;4.05;;;2.67;;
76125;SDS011;65174;48.138;21.002;2023-03-12T09:27:41;6.30;;;2.80;;
76125;SDS011;65174;48.138;21.002;2023-03-12T09:30:44;3.30;;;2.50;;
76125;SDS011;65174;48.138;21.002;2023-03-12T09:33:47;4.88;;;2.72;;
76125;SDS011;65174;48.138;21.002;2023-03-12T09:36:50;4.25;;;2.45;;
76125;SDS011;65174;48.138;21.002;2023-03-12T09:39:52;3.95;;;2.67;;
76125;SDS011;65174;48.138;21.002;2023-03-12T09:42:56;4.82;;;2.67;;
76125;SDS011;65174;48.138;21.002;2023-03-12T09:46:01;4.40;;;2.53;;
76125;SDS011;65174;48.138;21.002;2023-03-12T09:49:05;5.40;;;2.42;;
76125;SDS011;65174;48.138;21.002;2023-03-12T09:55:34;4.00;;;2.88;;
76125;SDS011;65174;48.138;21.002;2023-03-12T09:58:38;4.22;;;2.55;;
76125;SDS011;65174;48.138;21.002;2023-03-12T10:04:56;2.85;;;2.38;;
76125;SDS011;65174;48.138;21.002;2023-03-12T10:08:15;3.67;;;2.33;;
76125;SDS011;65174;48.138;21.002;2023-03-12T10:29:01;3.25;;;2.45;;
76125;SDS011;65174;48.138;21.002;2023-03-12T10:32:29;4.20;;;2.70;;
76125;SDS011;65174;48.138;21.002;2023-03-12T10:35:49;4.50;;;2.20;;
76125;SDS011;65174;48.138;21.002;2023-03-12T10:38:53;5.60;;;2.63;;
76125;SDS011;65174;48.138;21.002;2023-03-12T10:41:56;5.43;;;2.75;;
76125;SDS011;65174;48.138;21.002;2023-03-12T10:48:22;3.60;;;2.70;;
76125;SDS011;65174;48.138;21.002;2023-03-12T10:51:26;4.37;;;2.57;;
76125;SDS011;65174;48.138;21.002;2023-03-12T10:54:29;3.92;;;2.42;;
76125;SDS011;65174;48.138;21.002;2023-03-12T10:57:39;4.05;;;2.80;;
76125;SDS011;65174;48.138;21.002;2023-03-12T11:00:42;9.45;;;5.03;;
76125;SDS011;65174;48.138;21.002;2023-03-12T11:04:07;5.22;;;3.67;;
76125;SDS011;65174;48.138;21.002;2023-03-12T11:07:31;4.93;;;3.37;;
76125;SDS011;65174;48.138;21.002;2023-03-12T11:13:43;4.00;;;3.10;;
76125;SDS011;65174;48.138;21.002;2023-03-12T11:16:46;8.13;;;5.03;;
76125;SDS011;65174;48.138;21.002;2023-03-12T11:19:48;4.68;;;2.90;;
76125;SDS011;65174;48.138;21.002;2023-03-12T11:22:51;3.90;;;3.30;;
76125;SDS011;65174;48.138;21.002;2023-03-12T11:25:54;5.15;;;2.92;;
76125;SDS011;65174;48.138;21.002;2023-03-12T11:29:01;5.07;;;2.92;;
76125;SDS011;65174;48.138;21.002;2023-03-12T11:35:20;4.68;;;2.97;;
76125;SDS011;65174;48.138;21.002;2023-03-12T11:45:21;3.85;;;3.00;;
76125;SDS011;65174;48.138;21.002;2023-03-12T12:02:34;5.28;;;2.88;;
76125;SDS011;65174;48.138;21.002;2023-03-12T12:06:07;6.68;;;3.85;;
76125;SDS011;65174;48.138;21.002;2023-03-12T12:32:36;8.27;;;3.95;;
76125;SDS011;65174;48.138;21.002;2023-03-12T12:35:55;5.15;;;3.15;;
76125;SDS011;65174;48.138;21.002;2023-03-12T12:39:00;5.30;;;3.13;;
76125;SDS011;65174;48.138;21.002;2023-03-12T12:42:12;7.72;;;3.70;;
76125;SDS011;65174;48.138;21.002;2023-03-12T12:45:19;4.20;;;3.43;;
76125;SDS011;65174;48.138;21.002;2023-03-12T12:51:42;5.90;;;3.70;;
76125;SDS011;65174;48.138;21.002;2023-03-12T12:58:19;7.60;;;3.53;;
76125;SDS011;65174;48.138;21.002;2023-03-12T13:01:28;4.20;;;2.50;;
76125;SDS011;65174;48.138;21.002;2023-03-12T13:04:33;23.10;;;11.00;;
76125;SDS011;65174;48.138;21.002;2023-03-12T13:07:38;4.82;;;3.42;;
76125;SDS011;65174;48.138;21.002;2023-03-12T13:10:40;5.05;;;2.78;;
76125;SDS011;65174;48.138;21.002;2023-03-12T13:17:58;13.20;;;3.97;;
76125;SDS011;65174;48.138;21.002;2023-03-12T13:20:59;11.02;;;5.32;;
76125;SDS011;65174;48.138;21.002;2023-03-12T13:24:25;9.25;;;3.42;;
76125;SDS011;65174;48.138;21.002;2023-03-12T13:27:36;3.45;;;2.63;;
76125;SDS011;65174;48.138;21.002;2023-03-12T13:33:52;8.07;;;3.77;;
76125;SDS011;65174;48.138;21.002;2023-03-12T13:37:29;9.65;;;3.03;;
76125;SDS011;65174;48.138;21.002;2023-03-12T13:47:29;5.03;;;2.92;;
76125;SDS011;65174;48.138;21.002;2023-03-12T13:50:41;4.37;;;3.00;;
76125;SDS011;65174;48.138;21.002;2023-03-12T13:53:57;3.30;;;2.70;;
76125;SDS011;65174;48.138;21.002;2023-03-12T13:57:04;4.50;;;3.25;;
76125;SDS011;65174;48.138;21.002;2023-03-12T14:03:40;8.88;;;5.07;;
76125;SDS011;65174;48.138;21.002;2023-03-12T14:16:43;5.03;;;3.08;;
76125;SDS011;65174;48.138;21.002;2023-03-12T14:19:49;4.07;;;2.95;;
76125;SDS011;65174;48.138;21.002;2023-03-12T14:23:02;28.00;;;7.43;;
76125;SDS011;65174;48.138;21.002;2023-03-12T14:26:12;10.02;;;5.00;;
76125;SDS011;65174;48.138;21.002;2023-03-12T14:32:44;8.90;;;6.15;;
76125;SDS011;65174;48.138;21.002;2023-03-12T14:35:50;9.52;;;6.60;;
76125;SDS011;65174;48.138;21.002;2023-03-12T14:39:10;31.67;;;9.63;;
76125;SDS011;65174;48.138;21.002;2023-03-12T14:42:32;8.27;;;5.35;;
76125;SDS011;65174;48.138;21.002;2023-03-12T14:45:38;8.57;;;5.50;;
76125;SDS011;65174;48.138;21.002;2023-03-12T14:48:41;21.20;;;6.35;;
76125;SDS011;65174;48.138;21.002;2023-03-12T14:51:44;6.57;;;4.70;;
76125;SDS011;65174;48.138;21.002;2023-03-12T14:54:57;7.27;;;4.40;;
76125;SDS011;65174;48.138;21.002;2023-03-12T14:58:04;9.23;;;4.45;;
76125;SDS011;65174;48.138;21.002;2023-03-12T15:01:11;5.25;;;3.85;;
76125;SDS011;65174;48.138;21.002;2023-03-12T15:04:17;5.25;;;3.25;;
76125;SDS011;65174;48.138;21.002;2023-03-12T15:07:30;5.22;;;3.50;;
76125;SDS011;65174;48.138;21.002;2023-03-12T15:10:35;6.90;;;3.77;;
76125;SDS011;65174;48.138;21.002;2023-03-12T15:13:41;7.03;;;3.70;;
76125;SDS011;65174;48.138;21.002;2023-03-12T15:16:43;5.78;;;3.22;;
76125;SDS011;65174;48.138;21.002;2023-03-12T15:19:46;10.32;;;4.10;;
76125;SDS011;65174;48.138;21.002;2023-03-12T15:22:51;5.35;;;3.38;;
76125;SDS011;65174;48.138;21.002;2023-03-12T15:29:25;6.57;;;3.70;;
76125;SDS011;65174;48.138;21.002;2023-03-12T15:32:29;12.80;;;5.07;;
76125;SDS011;65174;48.138;21.002;2023-03-12T15:35:33;7.47;;;3.58;;
76125;SDS011;65174;48.138;21.002;2023-03-12T15:38:42;19.52;;;9.10;;
76125;SDS011;65174;48.138;21.002;2023-03-12T15:41:50;35.40;;;16.10;;
76125;SDS011;65174;48.138;21.002;2023-03-12T15:44:58;17.85;;;8.18;;
76125;SDS011;65174;48.138;21.002;2023-03-12T15:48:23;20.02;;;9.45;;
76125;SDS011;65174;48.138;21.002;2023-03-12T15:54:31;20.90;;;13.57;;
76125;SDS011;65174;48.138;21.002;2023-03-12T15:57:43;15.03;;;9.37;;
76125;SDS011;65174;48.138;21.002;2023-03-12T16:00:51;35.80;;;17.58;;
76125;SDS011;65174;48.138;21.002;2023-03-12T16:03:54;35.97;;;19.27;;
76125;SDS011;65174;48.138;21.002;2023-03-12T16:06:56;27.63;;;14.27;;
76125;SDS011;65174;48.138;21.002;2023-03-12T16:09:59;46.53;;;23.30;;
76125;SDS011;65174;48.138;21.002;2023-03-12T16:13:02;60.97;;;27.80;;
76125;SDS011;65174;48.138;21.002;2023-03-12T16:16:05;39.53;;;21.10;;
76125;SDS011;65174;48.138;21.002;2023-03-12T16:19:11;31.58;;;16.85;;
76125;SDS011;65174;48.138;21.002;2023-03-12T16:22:15;20.75;;;13.60;;
76125;SDS011;65174;48.138;21.002;2023-03-12T16:25:18;26.40;;;15.73;;
76125;SDS011;65174;48.138;21.002;2023-03-12T16:28:21;32.13;;;17.83;;
76125;SDS011;65174;48.138;21.002;2023-03-12T16:31:24;25.38;;;13.82;;
76125;SDS011;65174;48.138;21.002;2023-03-12T16:34:27;35.13;;;17.02;;
76125;SDS011;65174;48.138;21.002;2023-03-12T16:37:29;42.17;;;20.27;;
76125;SDS011;65174;48.138;21.002;2023-03-12T16:40:34;25.40;;;11.50;;
76125;SDS011;65174;48.138;21.002;2023-03-12T16:43:41;9.20;;;5.50;;
76125;SDS011;65174;48.138;21.002;2023-03-12T16:46:46;9.50;;;5.43;;
76125;SDS011;65174;48.138;21.002;2023-03-12T16:49:49;21.45;;;9.52;;
76125;SDS011;65174;48.138;21.002;2023-03-12T16:52:51;19.60;;;11.27;;
76125;SDS011;65174;48.138;21.002;2023-03-12T16:55:58;25.50;;;12.75;;
76125;SDS011;65174;48.138;21.002;2023-03-12T16:59:02;20.10;;;10.43;;
76125;SDS011;65174;48.138;21.002;2023-03-12T17:02:12;15.55;;;8.45;;
76125;SDS011;65174;48.138;21.002;2023-03-12T17:05:17;6.68;;;5.10;;
76125;SDS011;65174;48.138;21.002;2023-03-12T17:08:19;7.65;;;5.40;;
76125;SDS011;65174;48.138;21.002;2023-03-12T17:11:23;9.85;;;5.63;;
76125;SDS011;65174;48.138;21.002;2023-03-12T17:14:28;8.00;;;4.73;;
76125;SDS011;65174;48.138;21.002;2023-03-12T17:17:32;10.45;;;5.80;;
76125;SDS011;65174;48.138;21.002;2023-03-12T17:20:34;24.58;;;10.68;;
76125;SDS011;65174;48.138;21.002;2023-03-12T17:23:37;20.63;;;8.80;;
76125;SDS011;65174;48.138;21.002;2023-03-12T17:26:41;10.68;;;5.55;;
76125;SDS011;65174;48.138;21.002;2023-03-12T17:29:46;23.07;;;9.23;;
76125;SDS011;65174;48.138;21.002;2023-03-12T17:32:50;15.40;;;6.63;;
76125;SDS011;65174;48.138;21.002;2023-03-12T17:36:00;8.45;;;4.93;;
76125;SDS011;65174;48.138;21.002;2023-03-12T17:39:04;10.70;;;4.38;;
76125;SDS011;65174;48.138;21.002;2023-03-12T17:42:06;7.03;;;3.83;;
76125;SDS011;65174;48.138;21.002;2023-03-12T17:45:09;6.30;;;3.90;;
76125;SDS011;65174;48.138;21.002;2023-03-12T17:48:12;7.22;;;3.90;;
76125;SDS011;65174;48.138;21.002;2023-03-12T17:51:15;9.55;;;4.45;;
76125;SDS011;65174;48.138;21.002;2023-03-12T17:54:17;8.20;;;4.28;;
76125;SDS011;65174;48.138;21.002;2023-03-12T17:57:20;9.13;;;5.20;;
76125;SDS011;65174;48.138;21.002;2023-03-12T18:00:23;9.00;;;5.03;;
76125;SDS011;65174;48.138;21.002;2023-03-12T18:03:25;11.43;;;5.88;;
76125;SDS011;65174;48.138;21.002;2023-03-12T18:06:27;12.25;;;7.07;;
76125;SDS011;65174;48.138;21.002;2023-03-12T18:09:30;14.00;;;8.63;;
76125;SDS011;65174;48.138;21.002;2023-03-12T18:12:32;12.32;;;7.85;;
76125;SDS011;65174;48.138;21.002;2023-03-12T18:15:36;12.97;;;6.53;;
76125;SDS011;65174;48.138;21.002;2023-03-12T18:18:39;11.20;;;6.90;;
76125;SDS011;65174;48.138;21.002;2023-03-12T18:21:42;15.07;;;6.25;;
76125;SDS011;65174;48.138;21.002;2023-03-12T18:24:44;11.57;;;6.68;;
76125;SDS011;65174;48.138;21.002;2023-03-12T18:27:47;11.05;;;7.85;;
76125;SDS011;65174;48.138;21.002;2023-03-12T18:30:49;10.50;;;7.50;;
76125;SDS011;65174;48.138;21.002;2023-03-12T18:33:52;13.32;;;7.95;;
76125;SDS011;65174;48.138;21.002;2023-03-12T18:36:54;14.95;;;7.70;;
76125;SDS011;65174;48.138;21.002;2023-03-12T18:39:57;11.85;;;7.18;;
76125;SDS011;65174;48.138;21.002;2023-03-12T18:43:00;11.45;;;7.18;;
76125;SDS011;65174;48.138;21.002;2023-03-12T18:46:03;9.50;;;5.73;;
76125;SDS011;65174;48.138;21.002;2023-03-12T18:49:07;17.23;;;9.60;;
76125;SDS011;65174;48.138;21.002;2023-03-12T18:52:10;17.65;;;11.43;;
76125;SDS011;65174;48.138;21.002;2023-03-12T18:55:12;15.27;;;10.13;;
76125;SDS011;65174;48.138;21.002;2023-03-12T18:58:17;9.50;;;6.18;;
76125;SDS011;65174;48.138;21.002;2023-03-12T19:01:19;9.20;;;5.63;;
76125;SDS011;65174;48.138;21.002;2023-03-12T19:04:22;10.98;;;6.13;;
76125;SDS011;65174;48.138;21.002;2023-03-12T19:07:26;13.77;;;6.10;;
76125;SDS011;65174;48.138;21.002;2023-03-12T19:10:30;11.80;;;7.00;;
76125;SDS011;65174;48.138;21.002;2023-03-12T19:13:33;21.85;;;11.20;;
76125;SDS011;65174;48.138;21.002;2023-03-12T19:16:36;25.73;;;13.97;;
76125;SDS011;65174;48.138;21.002;2023-03-12T19:19:39;25.63;;;13.00;;
76125;SDS011;65174;48.138;21.002;2023-03-12T19:22:41;27.17;;;11.63;;
76125;SDS011;65174;48.138;21.002;2023-03-12T19:25:44;23.73;;;10.38;;
76125;SDS011;65174;48.138;21.002;2023-03-12T19:28:47;22.73;;;8.70;;
76125;SDS011;65174;48.138;21.002;2023-03-12T19:31:50;18.30;;;8.30;;
76125;SDS011;65174;48.138;21.002;2023-03-12T19:34:53;21.58;;;9.77;;
76125;SDS011;65174;48.138;21.002;2023-03-12T19:37:55;21.33;;;9.38;;
76125;SDS011;65174;48.138;21.002;2023-03-12T19:41:00;21.42;;;9.02;;
76125;SDS011;65174;48.138;21.002;2023-03-12T19:44:02;17.30;;;6.82;;
76125;SDS011;65174;48.138;21.002;2023-03-12T19:47:05;12.53;;;6.67;;
76125;SDS011;65174;48.138;21.002;2023-03-12T19:50:08;12.32;;;6.65;;
76125;SDS011;65174;48.138;21.002;2023-03-12T19:53:13;18.00;;;6.88;;
76125;SDS011;65174;48.138;21.002;2023-03-12T19:56:15;13.32;;;7.03;;
76125;SDS011;65174;48.138;21.002;2023-03-12T19:59:19;12.05;;;7.10;;
76125;SDS011;65174;48.138;21.002;2023-03-12T20:02:21;16.60;;;7.73;;
76125;SDS011;65174;48.138;21.002;2023-03-12T20:05:24;13.55;;;7.10;;
76125;SDS011;65174;48.138;21.002;2023-03-12T20:08:26;15.73;;;8.40;;
76125;SDS011;65174;48.138;21.002;2023-03-12T20:11:32;14.98;;;7.80;;
76125;SDS011;65174;48.138;21.002;2023-03-12T20:14:36;15.32;;;7.53;;
76125;SDS011;65174;48.138;21.002;2023-03-12T20:17:40;15.23;;;8.10;;
76125;SDS011;65174;48.138;21.002;2023-03-12T20:20:45;16.60;;;8.65;;
76125;SDS011;65174;48.138;21.002;2023-03-12T20:23:47;20.55;;;9.25;;
76125;SDS011;65174;48.138;21.002;2023-03-12T20:26:51;19.30;;;9.43;;